Decoded Metar for EPWR (WROCLAW in POLAND) (IATA:WRO) | Meteo·Mobile Aviation Weather
aviador You're here:

EPWR Decoded Metar

WROCLAW in POLAND
Report Time2018-10-17 03:30:00
UTC Time2018-10-17 04:01:45
Flight Rules vfr VFR
WindCalm
Visibility9999 m
Phenomena:N/A
Clouds:N/A
Expected CloudBase > 400 ft AGL from Temp-Dew spread
CeilingNone
Temp06°C (ISA -8)
Dew Point05°C (93% RH)
AAT4.9°C
QNH1020 hPa
Density Alt-712 ft
Elevation397 ft
Report Wrong Elevation
Raw Report
METAR EPWR 170330Z 00000KT CAVOK 06/05 Q1020=

Extra information for EPWR:More info

Metar Taf Metar & Taf Last 4 Metars F.Rules Stats Wind Profile Meteogram Temp Stats Airport Information Weather charts Add Link Nearby VenuesMetar ALERT Operation Metar Decoded Social comments